createdAt,value
2017-06-09T00:00:43.262Z,1005.10
2017-06-09T00:01:38.288Z,1005.07
2017-06-09T00:02:38.319Z,1005.02
2017-06-09T00:03:32.346Z,1005.04
2017-06-09T00:04:32.376Z,1005.02
2017-06-09T00:05:27.687Z,1004.98
2017-06-09T00:06:22.492Z,1005.02
2017-06-09T00:07:22.492Z,1005.01
2017-06-09T00:08:17.573Z,1005.01
2017-06-09T00:09:12.612Z,1004.97
2017-06-09T00:10:12.654Z,1005.05
2017-06-09T00:11:07.699Z,1005.02
2017-06-09T00:12:02.670Z,1005.01
2017-06-09T00:13:03.702Z,1004.98
2017-06-09T00:14:03.752Z,1004.98
2017-06-09T00:15:03.772Z,1004.96
2017-06-09T00:15:59.149Z,1004.96
2017-06-09T00:16:52.861Z,1004.92
2017-06-09T00:17:46.890Z,1004.97
2017-06-09T00:18:41.917Z,1004.95
2017-06-09T00:19:41.971Z,1004.91
2017-06-09T00:20:37.111Z,1004.88
2017-06-09T00:21:32.077Z,1004.90
2017-06-09T00:22:32.305Z,1004.91
2017-06-09T00:23:27.096Z,1004.89
2017-06-09T00:24:22.161Z,1004.92
2017-06-09T00:25:23.187Z,1004.88
2017-06-09T00:26:23.237Z,1004.86
2017-06-09T00:27:23.288Z,1004.85
2017-06-09T00:28:18.289Z,1004.86
2017-06-09T00:29:12.373Z,1004.81
2017-06-09T00:30:12.384Z,1004.80
2017-06-09T00:31:07.609Z,1004.79
2017-06-09T00:32:07.427Z,1004.83
2017-06-09T00:33:01.462Z,1004.79
2017-06-09T00:34:01.576Z,1004.85
2017-06-09T00:34:56.578Z,1004.86
2017-06-09T00:35:51.658Z,1004.87
2017-06-09T00:36:51.659Z,1004.87
2017-06-09T00:37:40.752Z,1004.87
2017-06-09T00:38:28.695Z,1004.90
2017-06-09T00:39:17.825Z,1004.90
2017-06-09T00:40:05.819Z,1004.92
2017-06-09T00:40:53.880Z,1004.91
2017-06-09T00:41:42.892Z,1004.92
2017-06-09T00:42:30.950Z,1004.88
2017-06-09T00:43:24.987Z,1004.89
2017-06-09T00:44:12.978Z,1004.88
2017-06-09T00:45:02.074Z,1004.89
2017-06-09T00:45:57.083Z,1004.85
2017-06-09T00:46:57.179Z,1004.86
2017-06-09T00:47:52.200Z,1004.83
2017-06-09T00:48:58.176Z,1004.86
2017-06-09T00:49:53.283Z,1004.84
2017-06-09T00:50:47.294Z,1004.83
2017-06-09T00:51:47.342Z,1004.83
2017-06-09T00:52:47.393Z,1004.84
2017-06-09T00:53:42.451Z,1004.79
2017-06-09T00:54:36.453Z,1004.80
2017-06-09T00:55:36.585Z,1004.81
2017-06-09T00:56:31.673Z,1004.75
2017-06-09T00:57:31.715Z,1004.72
2017-06-09T00:58:25.559Z,1004.69
2017-06-09T00:59:25.592Z,1004.68
2017-06-09T01:00:20.677Z,1004.67
2017-06-09T01:01:15.635Z,1004.66
2017-06-09T01:02:15.988Z,1004.70
2017-06-09T01:03:10.792Z,1004.74
2017-06-09T01:04:05.836Z,1004.80
2017-06-09T01:05:06.873Z,1004.86
2017-06-09T01:06:06.999Z,1004.94
2017-06-09T01:07:06.899Z,1004.96
2017-06-09T01:08:02.244Z,1004.99
2017-06-09T01:08:55.979Z,1005.01
2017-06-09T01:09:55.981Z,1005.01
2017-06-09T01:10:51.231Z,1005.07
2017-06-09T01:11:57.098Z,1005.11
2017-06-09T01:12:52.110Z,1005.12
2017-06-09T01:13:46.509Z,1005.11
2017-06-09T01:14:46.204Z,1005.12
2017-06-09T01:15:46.510Z,1005.15
2017-06-09T01:16:41.313Z,1005.13
2017-06-09T01:17:35.297Z,1005.14
2017-06-09T01:18:36.427Z,1005.15
2017-06-09T01:19:25.677Z,1005.14
2017-06-09T01:20:13.384Z,1005.15
2017-06-09T01:21:07.507Z,1005.12
2017-06-09T01:22:01.522Z,1005.13
2017-06-09T01:22:50.591Z,1005.06
2017-06-09T01:23:38.610Z,1005.05
2017-06-09T01:24:26.900Z,1005.02
2017-06-09T01:25:15.686Z,1005.00
2017-06-09T01:26:15.794Z,1004.97
2017-06-09T01:27:09.834Z,1004.95
2017-06-09T01:28:09.782Z,1004.92
2017-06-09T01:29:03.812Z,1004.92
2017-06-09T01:30:04.321Z,1004.89
2017-06-09T01:31:03.899Z,1004.86
2017-06-09T01:31:58.889Z,1004.88
2017-06-09T01:32:53.960Z,1004.85
2017-06-09T01:33:54.991Z,1004.83
2017-06-09T01:34:55.000Z,1004.81
2017-06-09T01:35:55.585Z,1004.86
2017-06-09T01:36:50.128Z,1004.82
2017-06-09T01:37:44.207Z,1004.84
2017-06-09T01:38:44.231Z,1004.90
2017-06-09T01:39:39.220Z,1004.88
2017-06-09T01:40:33.281Z,1004.86
2017-06-09T01:41:21.720Z,1004.85
2017-06-09T01:42:10.346Z,1004.82
2017-06-09T01:42:58.401Z,1004.83
2017-06-09T01:43:53.429Z,1004.77
2017-06-09T01:44:53.466Z,1004.80
2017-06-09T01:45:47.508Z,1004.74
2017-06-09T01:46:48.104Z,1004.76
2017-06-09T01:47:42.598Z,1004.75
2017-06-09T01:48:37.606Z,1004.74
2017-06-09T01:49:38.659Z,1004.72
2017-06-09T01:50:40.120Z,1004.74
2017-06-09T01:51:39.730Z,1004.69
2017-06-09T01:52:40.086Z,1004.72
2017-06-09T01:53:39.782Z,1004.74
2017-06-09T01:54:40.845Z,1004.72
2017-06-09T01:55:41.878Z,1004.69
2017-06-09T01:56:35.859Z,1004.73
2017-06-09T01:57:35.917Z,1004.69
2017-06-09T01:58:31.285Z,1004.68
2017-06-09T01:59:26.008Z,1004.68
2017-06-09T02:00:26.005Z,1004.69
2017-06-09T02:01:21.281Z,1004.66
2017-06-09T02:02:16.056Z,1004.65
2017-06-09T02:03:16.138Z,1004.67
2017-06-09T02:04:11.574Z,1004.65
2017-06-09T02:05:06.176Z,1004.68
2017-06-09T02:06:07.580Z,1004.60
2017-06-09T02:07:07.264Z,1004.65
2017-06-09T02:08:07.295Z,1004.63
2017-06-09T02:09:02.362Z,1004.56
2017-06-09T02:09:51.421Z,1004.60
2017-06-09T02:10:46.789Z,1004.58
2017-06-09T02:11:47.484Z,1004.62
2017-06-09T02:12:47.499Z,1004.63
2017-06-09T02:13:42.485Z,1004.62
2017-06-09T02:14:42.576Z,1004.61
2017-06-09T02:15:36.628Z,1004.59
2017-06-09T02:16:36.660Z,1004.60
2017-06-09T02:17:30.664Z,1004.58
2017-06-09T02:18:30.708Z,1004.55
2017-06-09T02:19:24.805Z,1004.53
2017-06-09T02:20:24.779Z,1004.56
2017-06-09T02:21:24.951Z,1004.56
2017-06-09T02:22:24.831Z,1004.52
2017-06-09T02:23:24.900Z,1004.52
2017-06-09T02:24:19.951Z,1004.49
2017-06-09T02:25:20.013Z,1004.49
2017-06-09T02:26:19.933Z,1004.50
2017-06-09T02:27:26.026Z,1004.48
2017-06-09T02:28:21.097Z,1004.50
2017-06-09T02:29:21.085Z,1004.52
2017-06-09T02:30:16.243Z,1004.52
2017-06-09T02:31:16.183Z,1004.53
2017-06-09T02:32:16.233Z,1004.57
2017-06-09T02:33:16.551Z,1004.52
2017-06-09T02:34:10.275Z,1004.52
2017-06-09T02:35:10.325Z,1004.52
2017-06-09T02:36:05.456Z,1004.53
2017-06-09T02:37:00.375Z,1004.48
2017-06-09T02:38:00.435Z,1004.47
2017-06-09T02:38:55.663Z,1004.51
2017-06-09T02:39:50.533Z,1004.45
2017-06-09T02:40:51.528Z,1004.44
2017-06-09T02:41:52.560Z,1004.41
2017-06-09T02:42:52.597Z,1004.38
2017-06-09T02:43:53.595Z,1004.42
2017-06-09T02:44:47.711Z,1004.37
2017-06-09T02:45:47.690Z,1004.38
2017-06-09T02:46:42.777Z,1004.34
2017-06-09T02:47:37.798Z,1004.32
2017-06-09T02:48:37.788Z,1004.38
2017-06-09T02:49:32.834Z,1004.36
2017-06-09T02:50:28.285Z,1004.34
2017-06-09T02:51:27.916Z,1004.31
2017-06-09T02:52:22.958Z,1004.31
2017-06-09T02:53:18.404Z,1004.29
2017-06-09T02:54:19.011Z,1004.24
2017-06-09T02:55:19.068Z,1004.25
2017-06-09T02:56:19.177Z,1004.24
2017-06-09T02:57:19.183Z,1004.22
2017-06-09T02:58:19.166Z,1004.24
2017-06-09T02:59:19.196Z,1004.25
2017-06-09T03:00:19.229Z,1004.29
2017-06-09T03:01:19.289Z,1004.31
2017-06-09T03:02:19.283Z,1004.31
2017-06-09T03:03:19.326Z,1004.31
2017-06-09T03:04:19.370Z,1004.22
2017-06-09T03:05:19.402Z,1004.27
2017-06-09T03:06:19.426Z,1004.26
2017-06-09T03:07:20.526Z,1004.23
2017-06-09T03:08:15.487Z,1004.24
2017-06-09T03:09:09.570Z,1004.24
2017-06-09T03:10:10.586Z,1004.24
2017-06-09T03:11:05.638Z,1004.25
2017-06-09T03:12:05.674Z,1004.18
2017-06-09T03:13:05.846Z,1004.19
2017-06-09T03:14:05.740Z,1004.18
2017-06-09T03:15:05.762Z,1004.18
2017-06-09T03:16:05.790Z,1004.21
2017-06-09T03:17:00.845Z,1004.20
2017-06-09T03:18:00.872Z,1004.18
2017-06-09T03:18:55.916Z,1004.14
2017-06-09T03:19:49.903Z,1004.17
2017-06-09T03:20:39.032Z,1004.17
2017-06-09T03:21:40.003Z,1004.14
2017-06-09T03:22:34.075Z,1004.12
2017-06-09T03:23:34.128Z,1004.15
2017-06-09T03:24:29.200Z,1004.18
2017-06-09T03:25:24.226Z,1004.16
2017-06-09T03:26:18.213Z,1004.08
2017-06-09T03:27:18.260Z,1004.14
2017-06-09T03:28:13.321Z,1004.10
2017-06-09T03:29:07.372Z,1004.12
2017-06-09T03:29:55.457Z,1004.12
2017-06-09T03:30:44.428Z,1004.10
2017-06-09T03:31:44.479Z,1004.11
2017-06-09T03:32:44.516Z,1004.07
2017-06-09T03:33:33.549Z,1004.06
2017-06-09T03:34:27.606Z,1004.01
2017-06-09T03:35:21.617Z,1004.00
2017-06-09T03:36:16.682Z,1004.02
2017-06-09T03:37:17.909Z,1004.00
2017-06-09T03:38:17.711Z,1004.00
2017-06-09T03:39:12.793Z,1003.94
2017-06-09T03:40:08.379Z,1003.96
2017-06-09T03:41:07.863Z,1003.97
2017-06-09T03:42:02.929Z,1003.97
2017-06-09T03:42:57.893Z,1003.92
2017-06-09T03:43:51.984Z,1003.91
2017-06-09T03:44:52.026Z,1003.93
2017-06-09T03:45:47.027Z,1003.95
2017-06-09T03:46:42.155Z,1003.94
2017-06-09T03:47:42.085Z,1003.93
2017-06-09T03:48:37.191Z,1003.99
2017-06-09T03:49:32.212Z,1003.95
2017-06-09T03:50:26.210Z,1003.96
2017-06-09T03:51:26.256Z,1003.96
2017-06-09T03:52:21.301Z,1003.99
2017-06-09T03:53:21.305Z,1003.96
2017-06-09T03:54:21.415Z,1003.98
2017-06-09T03:55:21.431Z,1003.97
2017-06-09T03:56:15.454Z,1003.99
2017-06-09T03:57:15.983Z,1003.95
2017-06-09T03:58:10.489Z,1003.90
2017-06-09T03:59:05.540Z,1003.87
2017-06-09T03:59:59.608Z,1003.86
2017-06-09T04:00:59.590Z,1003.82
2017-06-09T04:01:54.653Z,1003.82
2017-06-09T04:02:49.732Z,1003.80
2017-06-09T04:03:49.796Z,1003.86
2017-06-09T04:04:44.772Z,1003.87
2017-06-09T04:05:39.816Z,1003.84
2017-06-09T04:06:33.926Z,1003.82
2017-06-09T04:07:34.846Z,1003.84
2017-06-09T04:08:29.928Z,1003.84
2017-06-09T04:09:24.002Z,1003.85
2017-06-09T04:10:13.002Z,1003.81
2017-06-09T04:11:07.074Z,1003.81
2017-06-09T04:12:02.098Z,1003.80
2017-06-09T04:12:50.152Z,1003.81
2017-06-09T04:13:44.182Z,1003.73
2017-06-09T04:14:39.226Z,1003.72
2017-06-09T04:15:28.282Z,1003.72
2017-06-09T04:16:22.305Z,1003.67
2017-06-09T04:17:22.327Z,1003.63
2017-06-09T04:18:22.370Z,1003.64
2017-06-09T04:19:22.384Z,1003.63
2017-06-09T04:20:16.766Z,1003.63
2017-06-09T04:21:16.773Z,1003.62
2017-06-09T04:22:11.555Z,1003.64
2017-06-09T04:23:06.603Z,1003.68
2017-06-09T04:24:00.583Z,1003.71
2017-06-09T04:25:01.651Z,1003.70
2017-06-09T04:25:56.660Z,1003.71
2017-06-09T04:26:56.705Z,1003.69
2017-06-09T04:27:56.854Z,1003.71
2017-06-09T04:28:56.800Z,1003.72
2017-06-09T04:29:56.834Z,1003.76
2017-06-09T04:30:56.874Z,1003.73
2017-06-09T04:31:56.901Z,1003.76
2017-06-09T04:32:52.222Z,1003.75
2017-06-09T04:33:46.975Z,1003.74
2017-06-09T04:34:42.001Z,1003.78
2017-06-09T04:35:36.533Z,1003.73
2017-06-09T04:36:36.186Z,1003.78
2017-06-09T04:37:36.166Z,1003.69
2017-06-09T04:38:36.581Z,1003.67
2017-06-09T04:39:36.381Z,1003.64
2017-06-09T04:40:36.701Z,1003.65
2017-06-09T04:41:36.298Z,1003.71
2017-06-09T04:42:31.425Z,1003.71
2017-06-09T04:43:19.807Z,1003.68
2017-06-09T04:44:13.420Z,1003.69
2017-06-09T04:45:13.933Z,1003.68
2017-06-09T04:46:07.509Z,1003.68
2017-06-09T04:47:02.621Z,1003.64
2017-06-09T04:47:57.612Z,1003.68
2017-06-09T04:48:51.757Z,1003.64
2017-06-09T04:49:46.760Z,1003.60
2017-06-09T04:50:46.784Z,1003.61
2017-06-09T04:51:35.837Z,1003.50
2017-06-09T04:52:29.876Z,1003.54
2017-06-09T04:53:31.144Z,1003.62
2017-06-09T04:54:31.574Z,1003.61
2017-06-09T04:55:25.976Z,1003.60
2017-06-09T04:56:20.990Z,1003.63
2017-06-09T04:57:21.074Z,1003.62
2017-06-09T04:58:15.110Z,1003.62
2017-06-09T04:59:10.164Z,1003.61
2017-06-09T04:59:59.209Z,1003.62
2017-06-09T05:00:53.292Z,1003.64
2017-06-09T05:01:53.316Z,1003.63
2017-06-09T05:02:41.407Z,1003.68
2017-06-09T05:03:29.401Z,1003.68
2017-06-09T05:04:17.412Z,1003.65
2017-06-09T05:05:12.719Z,1003.67
2017-06-09T05:06:07.640Z,1003.67
2017-06-09T05:07:07.586Z,1003.62
2017-06-09T05:07:56.664Z,1003.60
2017-06-09T05:08:45.697Z,1003.59
2017-06-09T05:09:40.723Z,1003.58
2017-06-09T05:10:40.921Z,1003.57
2017-06-09T05:11:35.816Z,1003.56
2017-06-09T05:12:41.854Z,1003.57
2017-06-09T05:13:35.906Z,1003.63
2017-06-09T05:14:36.954Z,1003.61
2017-06-09T05:15:37.476Z,1003.68
2017-06-09T05:16:37.089Z,1003.67
2017-06-09T05:17:32.118Z,1003.72
2017-06-09T05:18:32.150Z,1003.77
2017-06-09T05:19:32.515Z,1003.80
2017-06-09T05:20:32.762Z,1003.82
2017-06-09T05:21:32.391Z,1003.81
2017-06-09T05:22:32.309Z,1003.85
2017-06-09T05:23:32.325Z,1003.85
2017-06-09T05:24:32.530Z,1003.84
2017-06-09T05:25:38.597Z,1003.85
2017-06-09T05:26:33.501Z,1003.85
2017-06-09T05:27:27.539Z,1003.78
2017-06-09T05:28:28.566Z,1003.81
2017-06-09T05:29:22.603Z,1003.76
2017-06-09T05:30:17.650Z,1003.72
2017-06-09T05:31:18.264Z,1003.71
2017-06-09T05:32:12.807Z,1003.70
2017-06-09T05:33:07.824Z,1003.67
2017-06-09T05:34:02.131Z,1003.64
2017-06-09T05:35:01.893Z,1003.61
2017-06-09T05:35:55.974Z,1003.64
2017-06-09T05:36:56.010Z,1003.60
2017-06-09T05:37:49.999Z,1003.60
2017-06-09T05:38:50.113Z,1003.57
2017-06-09T05:39:44.378Z,1003.60
2017-06-09T05:40:50.200Z,1003.62
2017-06-09T05:41:44.236Z,1003.60
2017-06-09T05:42:50.274Z,1003.62
2017-06-09T05:43:39.305Z,1003.61
2017-06-09T05:44:28.367Z,1003.64
2017-06-09T05:45:17.623Z,1003.65
2017-06-09T05:46:06.551Z,1003.62
2017-06-09T05:47:01.553Z,1003.63
2017-06-09T05:48:01.615Z,1003.59
2017-06-09T05:48:56.603Z,1003.67
2017-06-09T05:49:56.687Z,1003.68
2017-06-09T05:50:57.752Z,1003.66
2017-06-09T05:51:51.760Z,1003.69
2017-06-09T05:52:51.833Z,1003.66
2017-06-09T05:53:46.845Z,1003.65
2017-06-09T05:54:41.986Z,1003.63
2017-06-09T05:55:36.621Z,1003.60
2017-06-09T05:56:36.015Z,1003.57
2017-06-09T05:57:30.131Z,1003.54
2017-06-09T05:58:19.104Z,1003.53
2017-06-09T05:59:07.140Z,1003.53
2017-06-09T05:59:56.190Z,1003.57
2017-06-09T06:00:44.353Z,1003.55
2017-06-09T06:01:33.396Z,1003.56
2017-06-09T06:02:33.395Z,1003.54
2017-06-09T06:03:27.572Z,1003.60
2017-06-09T06:04:22.420Z,1003.64
2017-06-09T06:05:11.928Z,1003.67
2017-06-09T06:06:11.554Z,1003.70
2017-06-09T06:07:06.592Z,1003.74
2017-06-09T06:08:01.624Z,1003.76
2017-06-09T06:09:01.656Z,1003.76
2017-06-09T06:09:56.754Z,1003.81
2017-06-09T06:10:51.788Z,1003.82
2017-06-09T06:11:45.794Z,1003.84
2017-06-09T06:12:45.857Z,1003.88
2017-06-09T06:13:41.061Z,1003.88
2017-06-09T06:14:35.972Z,1003.90
2017-06-09T06:15:36.465Z,1003.91
2017-06-09T06:16:30.071Z,1003.86
2017-06-09T06:17:30.104Z,1003.85
2017-06-09T06:18:24.104Z,1003.81
2017-06-09T06:19:12.239Z,1003.79
2017-06-09T06:20:00.204Z,1003.80
2017-06-09T06:20:49.497Z,1003.79
2017-06-09T06:21:37.353Z,1003.79
2017-06-09T06:22:37.411Z,1003.78
2017-06-09T06:23:32.429Z,1003.73
2017-06-09T06:24:32.519Z,1003.73
2017-06-09T06:25:32.534Z,1003.73
2017-06-09T06:26:38.570Z,1003.76
2017-06-09T06:27:33.596Z,1003.79
2017-06-09T06:28:27.675Z,1003.72
2017-06-09T06:29:28.699Z,1003.76
2017-06-09T06:30:24.116Z,1003.79
2017-06-09T06:31:23.781Z,1003.81
2017-06-09T06:32:24.097Z,1003.85
2017-06-09T06:33:23.872Z,1003.87
2017-06-09T06:34:24.057Z,1003.94
2017-06-09T06:35:24.295Z,1003.96
2017-06-09T06:36:24.002Z,1003.99
2017-06-09T06:37:24.168Z,1003.98
2017-06-09T06:38:30.082Z,1004.00
2017-06-09T06:39:25.147Z,1003.99
2017-06-09T06:40:19.223Z,1003.98
2017-06-09T06:41:14.280Z,1003.92
2017-06-09T06:42:20.628Z,1003.87
2017-06-09T06:43:15.323Z,1003.82
2017-06-09T06:44:09.397Z,1003.81
2017-06-09T06:45:09.623Z,1003.74
2017-06-09T06:46:03.839Z,1003.71
2017-06-09T06:47:03.569Z,1003.74
2017-06-09T06:47:58.603Z,1003.73
2017-06-09T06:48:58.758Z,1003.76
2017-06-09T06:49:52.664Z,1003.73
2017-06-09T06:50:46.716Z,1003.72
2017-06-09T06:51:46.777Z,1003.72
2017-06-09T06:52:46.853Z,1003.74
2017-06-09T06:53:40.863Z,1003.72
2017-06-09T06:54:28.918Z,1003.66
2017-06-09T06:55:22.922Z,1003.67
2017-06-09T06:56:18.007Z,1003.67
2017-06-09T06:57:12.513Z,1003.68
2017-06-09T06:58:07.423Z,1003.67
2017-06-09T06:59:07.144Z,1003.65
2017-06-09T07:00:01.217Z,1003.65
2017-06-09T07:00:55.200Z,1003.63
2017-06-09T07:01:50.586Z,1003.66
2017-06-09T07:02:45.425Z,1003.71
2017-06-09T07:03:45.748Z,1003.66
2017-06-09T07:04:40.462Z,1003.68
2017-06-09T07:05:35.977Z,1003.70
2017-06-09T07:06:24.531Z,1003.71
2017-06-09T07:07:19.594Z,1003.74
2017-06-09T07:08:19.628Z,1003.73
2017-06-09T07:09:15.306Z,1003.81
2017-06-09T07:10:09.779Z,1003.81
2017-06-09T07:11:03.754Z,1003.77
2017-06-09T07:12:03.829Z,1003.80
2017-06-09T07:12:59.076Z,1003.81
2017-06-09T07:13:58.916Z,1003.80
2017-06-09T07:14:53.286Z,1003.77
2017-06-09T07:15:46.978Z,1003.76
2017-06-09T07:16:41.087Z,1003.80
2017-06-09T07:17:30.282Z,1003.79
2017-06-09T07:18:19.157Z,1003.77
2017-06-09T07:19:07.215Z,1003.74
2017-06-09T07:19:56.582Z,1003.72
2017-06-09T07:20:50.336Z,1003.72
2017-06-09T07:21:50.369Z,1003.70
2017-06-09T07:22:50.584Z,1003.68
2017-06-09T07:23:50.409Z,1003.68
2017-06-09T07:24:50.509Z,1003.70
2017-06-09T07:25:50.636Z,1003.68
2017-06-09T07:26:50.933Z,1003.65
2017-06-09T07:27:50.647Z,1003.57
2017-06-09T07:28:50.724Z,1003.53
2017-06-09T07:29:39.754Z,1003.55
2017-06-09T07:30:28.795Z,1003.52
2017-06-09T07:31:23.864Z,1003.52
2017-06-09T07:32:18.975Z,1003.45
2017-06-09T07:33:18.932Z,1003.48
2017-06-09T07:34:13.028Z,1003.49
2017-06-09T07:35:13.068Z,1003.45
2017-06-09T07:36:07.124Z,1003.47
2017-06-09T07:37:08.335Z,1003.51
2017-06-09T07:38:02.212Z,1003.51
2017-06-09T07:38:50.497Z,1003.51
2017-06-09T07:39:39.518Z,1003.50
2017-06-09T07:40:33.361Z,1003.46
2017-06-09T07:41:27.414Z,1003.47
2017-06-09T07:42:15.559Z,1003.41
2017-06-09T07:43:09.512Z,1003.30
2017-06-09T07:44:04.585Z,1003.28
2017-06-09T07:45:04.648Z,1003.16
2017-06-09T07:45:53.729Z,1003.14
2017-06-09T07:46:47.764Z,1003.13
2017-06-09T07:47:42.818Z,1003.09
2017-06-09T07:48:37.857Z,1003.08
2017-06-09T07:49:26.913Z,1003.05
2017-06-09T07:50:16.192Z,1003.08
2017-06-09T07:51:10.446Z,1003.08
2017-06-09T07:51:59.081Z,1003.08
2017-06-09T07:52:53.362Z,1003.07
2017-06-09T07:53:42.185Z,1003.08
2017-06-09T07:54:30.243Z,1003.03
2017-06-09T07:55:24.273Z,1003.05
2017-06-09T07:56:12.292Z,1003.04
2017-06-09T07:57:06.383Z,1003.06
2017-06-09T07:57:54.793Z,1003.05
2017-06-09T07:58:49.494Z,1003.08
2017-06-09T07:59:37.543Z,1003.12
2017-06-09T08:00:25.611Z,1003.13
2017-06-09T08:01:19.655Z,1003.14
2017-06-09T08:02:07.698Z,1003.15
2017-06-09T08:03:02.017Z,1003.20
2017-06-09T08:03:56.791Z,1003.22
2017-06-09T08:04:50.872Z,1003.27
2017-06-09T08:05:39.404Z,1003.29
2017-06-09T08:06:26.977Z,1003.37
2017-06-09T08:07:16.001Z,1003.41
2017-06-09T08:08:10.374Z,1003.42
2017-06-09T08:08:58.159Z,1003.47
2017-06-09T08:09:52.171Z,1003.46
2017-06-09T08:10:41.760Z,1003.46
2017-06-09T08:11:35.323Z,1003.48
2017-06-09T08:12:29.378Z,1003.47
2017-06-09T08:13:23.650Z,1003.47
2017-06-09T08:14:17.449Z,1003.47
2017-06-09T08:15:18.510Z,1003.47
2017-06-09T08:16:18.560Z,1003.52
2017-06-09T08:17:13.592Z,1003.58
2017-06-09T08:18:08.673Z,1003.58
2017-06-09T08:19:08.704Z,1003.60
2017-06-09T08:20:03.736Z,1003.62
2017-06-09T08:20:57.819Z,1003.59
2017-06-09T08:21:51.862Z,1003.62
2017-06-09T08:22:52.903Z,1003.62
2017-06-09T08:23:47.913Z,1003.62
2017-06-09T08:24:37.049Z,1003.68
2017-06-09T08:25:31.068Z,1003.69
2017-06-09T08:26:26.094Z,1003.69
2017-06-09T08:27:21.185Z,1003.69
2017-06-09T08:28:10.212Z,1003.73
2017-06-09T08:29:04.304Z,1003.68
2017-06-09T08:30:05.369Z,1003.72
2017-06-09T08:31:06.370Z,1003.76
2017-06-09T08:32:06.576Z,1003.76
2017-06-09T08:33:06.539Z,1003.78
2017-06-09T08:34:00.832Z,1003.82
2017-06-09T08:34:54.594Z,1003.81
2017-06-09T08:35:54.953Z,1003.82
2017-06-09T08:36:48.713Z,1003.84
2017-06-09T08:37:37.821Z,1003.86
2017-06-09T08:38:37.811Z,1003.80
2017-06-09T08:39:26.836Z,1003.81
2017-06-09T08:40:20.886Z,1003.86
2017-06-09T08:41:09.695Z,1003.83
2017-06-09T08:42:03.005Z,1003.89
2017-06-09T08:42:52.081Z,1003.81
2017-06-09T08:43:46.098Z,1003.82
2017-06-09T08:44:41.207Z,1003.90
2017-06-09T08:45:35.323Z,1003.94
2017-06-09T08:46:23.525Z,1004.01
2017-06-09T08:47:17.643Z,1004.02
2017-06-09T08:48:17.698Z,1004.08
2017-06-09T08:49:11.635Z,1004.05
2017-06-09T08:49:59.713Z,1004.02
2017-06-09T08:50:54.556Z,1004.05
2017-06-09T08:51:48.994Z,1004.06
2017-06-09T08:52:42.701Z,1004.05
2017-06-09T08:53:32.139Z,1004.07
2017-06-09T08:54:32.106Z,1004.09
2017-06-09T08:55:21.120Z,1003.98
2017-06-09T08:56:21.287Z,1003.98
2017-06-09T08:57:16.186Z,1003.96
2017-06-09T08:58:11.254Z,1003.92
2017-06-09T08:59:05.400Z,1003.91
2017-06-09T09:00:05.486Z,1003.86
2017-06-09T09:00:54.255Z,1003.91
2017-06-09T09:01:49.446Z,1003.93
2017-06-09T09:02:49.810Z,1003.95
2017-06-09T09:03:44.703Z,1003.99
2017-06-09T09:04:38.477Z,1004.12
2017-06-09T09:05:38.934Z,1004.08
2017-06-09T09:06:33.487Z,1004.08
2017-06-09T09:07:28.573Z,1004.14
2017-06-09T09:08:23.670Z,1004.08
2017-06-09T09:09:11.674Z,1004.10
2017-06-09T09:10:12.721Z,1004.10
2017-06-09T09:11:07.039Z,1004.13
2017-06-09T09:12:01.029Z,1004.18
2017-06-09T09:12:55.896Z,1004.18
2017-06-09T09:13:55.927Z,1004.20
2017-06-09T09:14:51.083Z,1004.19
2017-06-09T09:15:51.047Z,1004.12
2017-06-09T09:16:40.079Z,1004.18
2017-06-09T09:17:28.180Z,1004.19
2017-06-09T09:18:28.223Z,1004.18
2017-06-09T09:19:22.772Z,1004.20
2017-06-09T09:20:22.315Z,1004.13
2017-06-09T09:21:11.666Z,1004.16
2017-06-09T09:22:05.435Z,1004.10
2017-06-09T09:22:54.417Z,1004.05
2017-06-09T09:23:49.526Z,1004.02
2017-06-09T09:24:39.244Z,1003.96
2017-06-09T09:25:33.586Z,1003.97
2017-06-09T09:26:28.661Z,1003.99
2017-06-09T09:27:17.703Z,1003.98
2017-06-09T09:28:13.145Z,1004.01
2017-06-09T09:29:01.842Z,1004.03
2017-06-09T09:29:57.160Z,1004.00
2017-06-09T09:30:51.929Z,1004.00
2017-06-09T09:31:46.968Z,1004.00
2017-06-09T09:32:36.004Z,1003.99
2017-06-09T09:33:30.090Z,1003.98
2017-06-09T09:34:25.132Z,1004.02
2017-06-09T09:35:19.279Z,1003.97
2017-06-09T09:36:13.577Z,1003.99
2017-06-09T09:37:13.288Z,1004.05
2017-06-09T09:38:07.303Z,1004.03
2017-06-09T09:39:07.358Z,1004.06
2017-06-09T09:39:56.483Z,1004.09
2017-06-09T09:40:45.456Z,1004.13
2017-06-09T09:41:39.507Z,1004.18
2017-06-09T09:42:34.586Z,1004.20
2017-06-09T09:43:28.604Z,1004.19
2017-06-09T09:44:23.680Z,1004.16
2017-06-09T09:45:12.781Z,1004.18
2017-06-09T09:46:07.822Z,1004.15
2017-06-09T09:47:02.816Z,1004.10
2017-06-09T09:47:56.930Z,1004.21
2017-06-09T09:48:50.952Z,1004.28
2017-06-09T09:49:46.036Z,1004.33
2017-06-09T09:50:46.013Z,1004.37
2017-06-09T09:51:41.256Z,1004.40
2017-06-09T09:52:30.137Z,1004.40
2017-06-09T09:53:19.161Z,1004.41
2017-06-09T09:54:14.236Z,1004.40
2017-06-09T09:55:09.272Z,1004.41
2017-06-09T09:55:58.315Z,1004.47
2017-06-09T09:56:52.674Z,1004.41
2017-06-09T09:57:41.491Z,1004.49
2017-06-09T09:58:41.853Z,1004.55
2017-06-09T09:59:35.516Z,1004.51
2017-06-09T10:00:35.578Z,1004.45
2017-06-09T10:01:30.582Z,1004.40
2017-06-09T10:02:19.972Z,1004.44
2017-06-09T10:03:08.907Z,1004.40
2017-06-09T10:03:56.794Z,1004.34
2017-06-09T10:04:51.802Z,1004.26
2017-06-09T10:05:46.877Z,1004.12
2017-06-09T10:06:35.916Z,1004.02
2017-06-09T10:07:30.438Z,1004.04
2017-06-09T10:08:23.989Z,1003.95
2017-06-09T10:09:18.084Z,1003.91
2017-06-09T10:10:18.100Z,1003.89
2017-06-09T10:11:07.173Z,1003.85
2017-06-09T10:11:56.192Z,1003.79
2017-06-09T10:12:50.564Z,1003.76
2017-06-09T10:13:44.305Z,1003.88
2017-06-09T10:14:39.379Z,1004.01
2017-06-09T10:15:33.361Z,1004.09
2017-06-09T10:16:27.387Z,1004.24
2017-06-09T10:17:16.519Z,1004.31
2017-06-09T10:18:10.584Z,1004.42
2017-06-09T10:18:59.593Z,1004.55
2017-06-09T10:19:53.952Z,1004.61
2017-06-09T10:20:48.652Z,1004.82
2017-06-09T10:21:43.703Z,1004.79
2017-06-09T10:22:37.781Z,1004.76
2017-06-09T10:23:31.960Z,1004.78
2017-06-09T10:24:31.842Z,1004.69
2017-06-09T10:25:25.937Z,1004.64
2017-06-09T10:26:19.986Z,1004.73
2017-06-09T10:27:20.055Z,1004.82
2017-06-09T10:28:15.037Z,1004.80
2017-06-09T10:29:03.143Z,1004.89
2017-06-09T10:29:58.181Z,1004.96
2017-06-09T10:30:47.184Z,1004.95
2017-06-09T10:31:35.286Z,1004.94
2017-06-09T10:32:29.310Z,1005.00
2017-06-09T10:33:23.375Z,1004.96
2017-06-09T10:34:17.371Z,1005.04
2017-06-09T10:35:17.445Z,1004.97
2017-06-09T10:36:11.544Z,1004.97
2017-06-09T10:37:00.504Z,1004.97
2017-06-09T10:37:48.587Z,1004.98
2017-06-09T10:38:37.576Z,1004.96
2017-06-09T10:39:31.716Z,1004.91
2017-06-09T10:40:19.706Z,1004.98
2017-06-09T10:41:19.809Z,1004.92
2017-06-09T10:42:14.784Z,1004.88
2017-06-09T10:43:08.817Z,1004.93
2017-06-09T10:43:57.917Z,1004.90
2017-06-09T10:44:52.257Z,1004.93
2017-06-09T10:45:46.977Z,1004.94
2017-06-09T10:46:35.016Z,1004.94
2017-06-09T10:47:29.104Z,1004.96
2017-06-09T10:48:24.105Z,1004.94
2017-06-09T10:49:19.172Z,1004.98
2017-06-09T10:50:13.510Z,1004.97
2017-06-09T10:51:02.272Z,1005.04
2017-06-09T10:51:56.275Z,1005.03
2017-06-09T10:52:45.313Z,1005.15
2017-06-09T10:53:39.417Z,1005.21
2017-06-09T10:54:33.451Z,1005.28
2017-06-09T10:55:33.870Z,1005.33
2017-06-09T10:56:27.520Z,1005.30
2017-06-09T10:57:21.602Z,1005.37
2017-06-09T10:58:21.589Z,1005.43
2017-06-09T10:59:21.624Z,1005.35
2017-06-09T11:00:15.674Z,1005.35
2017-06-09T11:01:05.514Z,1005.34
2017-06-09T11:02:04.827Z,1005.36
2017-06-09T11:02:58.795Z,1005.42
2017-06-09T11:03:52.888Z,1005.44
2017-06-09T11:04:47.911Z,1005.43
2017-06-09T11:05:36.914Z,1005.40
2017-06-09T11:06:26.300Z,1005.44
2017-06-09T11:07:15.052Z,1005.44
2017-06-09T11:08:15.084Z,1005.49
2017-06-09T11:09:09.113Z,1005.53
2017-06-09T11:09:57.180Z,1005.51
2017-06-09T11:10:46.133Z,1005.52
2017-06-09T11:11:34.306Z,1005.52